Time;durP1;ratioP1;P1;durP2;ratioP2;P2;SDS_P1;SDS_P2;PMS_P1;PMS_P2;Temp;Humidity;BMP_temperature;BMP_pressure;BME280_temperature;BME280_humidity;BME280_pressure;Samples;Min_cycle;Max_cycle;Signal;HPM_P1;HPM_P2
2022/10/04 00:01:23;;;;;;;;;;;6.30;99.90;;;;;;4996899;28;19932;-71
2022/10/04 00:03:53;;;;;;;;;;;6.30;99.90;;;;;;5028784;28;20343;-73
2022/10/04 00:06:20;;;;;;;;;;;6.30;99.90;;;;;;4999314;28;19925;-73
2022/10/04 00:08:54;;;;;;;;;;;6.20;99.90;;;;;;5012622;28;19976;-73
2022/10/04 00:11:27;;;;;;;;;;;6.20;99.90;;;;;;5027510;28;19930;-72
2022/10/04 00:14:01;;;;;;;;;;;6.20;99.90;;;;;;5010163;28;19928;-72
2022/10/04 00:16:36;;;;;;;;;;;6.20;99.90;;;;;;5019438;28;19963;-72
2022/10/04 00:19:14;;;;;;;;;;;6.20;99.90;;;;;;5020228;28;19932;-72
2022/10/04 00:21:52;;;;;;;;;;;6.20;99.90;;;;;;5010888;28;19944;-72
2022/10/04 00:24:29;;;;;;;;;;;6.20;99.90;;;;;;5006644;28;19929;-73
2022/10/04 00:27:23;;;;;;;;;;;6.20;99.90;;;;;;5008492;28;19933;-73
2022/10/04 00:30:01;;;;;;;;;;;6.10;99.90;;;;;;5009517;28;19925;-72
2022/10/04 00:32:28;;;;;;;;;;;6.10;99.90;;;;;;5005933;28;19929;-71
2022/10/04 00:35:00;;;;;;;;;;;6.10;99.90;;;;;;4997699;28;19929;-72
2022/10/04 00:37:51;;;;;;;;;;;6.10;99.90;;;;;;4985253;28;20507;-71
2022/10/04 00:40:19;;;;;;;;;;;6.00;99.90;;;;;;5013136;28;19925;-72
2022/10/04 00:42:54;;;;;;;;;;;6.00;99.90;;;;;;5000718;28;20412;-71
2022/10/04 00:45:27;;;;;;;;;;;5.90;99.90;;;;;;5016152;28;19976;-72
2022/10/04 00:48:15;;;;;;;;;;;5.90;99.90;;;;;;5033150;28;19925;-71
2022/10/04 00:50:54;;;;;;;;;;;5.90;99.90;;;;;;5018108;28;20380;-72
2022/10/04 00:53:34;;;;;;;;;;;5.80;99.90;;;;;;5032392;28;19932;-72
2022/10/04 00:56:10;;;;;;;;;;;5.80;99.90;;;;;;5005471;28;19980;-70
2022/10/04 00:58:48;;;;;;;;;;;5.80;99.90;;;;;;4996063;28;19925;-71
2022/10/04 01:01:22;;;;;;;;;;;5.80;99.90;;;;;;5008514;28;19973;-71
2022/10/04 01:03:56;;;;;;;;;;;5.70;99.90;;;;;;5005113;28;19976;-71
2022/10/04 01:06:28;;;;;;;;;;;5.80;99.90;;;;;;5004561;28;20064;-72
2022/10/04 01:09:03;;;;;;;;;;;5.80;99.90;;;;;;4995656;28;19925;-71
2022/10/04 01:11:38;;;;;;;;;;;5.80;99.90;;;;;;5017765;28;19991;-71
2022/10/04 01:14:11;;;;;;;;;;;5.80;99.90;;;;;;5016624;28;19925;-71
2022/10/04 01:16:43;;;;;;;;;;;5.80;99.90;;;;;;4988634;28;19929;-71
2022/10/04 01:19:23;;;;;;;;;;;5.80;99.90;;;;;;5031091;28;19925;-71
2022/10/04 01:21:58;;;;;;;;;;;5.80;99.90;;;;;;5008394;28;19926;-71
2022/10/04 01:24:34;;;;;;;;;;;5.70;99.90;;;;;;5013062;28;19926;-72
2022/10/04 01:27:26;;;;;;;;;;;5.70;99.90;;;;;;5021532;28;19930;-72
2022/10/04 01:29:58;;;;;;;;;;;5.70;99.90;;;;;;4980229;28;20375;-72
2022/10/04 01:32:30;;;;;;;;;;;5.70;99.90;;;;;;4998667;28;19932;-71
2022/10/04 01:35:02;;;;;;;;;;;5.70;99.90;;;;;;4995813;28;19956;-72
2022/10/04 01:37:33;;;;;;;;;;;5.60;99.90;;;;;;5012344;28;19929;-71
2022/10/04 01:40:07;;;;;;;;;;;5.60;99.90;;;;;;5024013;28;19925;-71
2022/10/04 01:42:40;;;;;;;;;;;5.60;99.90;;;;;;5008935;28;19934;-72
2022/10/04 01:45:18;;;;;;;;;;;5.50;99.90;;;;;;5012516;28;19925;-72
2022/10/04 01:47:52;;;;;;;;;;;5.50;99.90;;;;;;5019334;28;19925;-71
2022/10/04 01:50:24;;;;;;;;;;;5.50;99.90;;;;;;5022718;28;19929;-71
2022/10/04 01:53:05;;;;;;;;;;;5.50;99.90;;;;;;5014497;28;19992;-71
2022/10/04 01:55:38;;;;;;;;;;;5.40;99.90;;;;;;5016088;28;19925;-71
2022/10/04 01:58:16;;;;;;;;;;;5.50;99.90;;;;;;5009822;28;19925;-71
2022/10/04 02:00:52;;;;;;;;;;;5.50;99.90;;;;;;5009273;28;19948;-72
2022/10/04 02:03:31;;;;;;;;;;;5.40;99.90;;;;;;5032795;28;19932;-72
2022/10/04 02:06:04;;;;;;;;;;;5.30;99.90;;;;;;5003158;28;20288;-71
2022/10/04 02:08:38;;;;;;;;;;;5.30;99.90;;;;;;5016061;28;19929;-72
2022/10/04 02:11:15;;;;;;;;;;;5.20;99.90;;;;;;5003828;28;20269;-71
2022/10/04 02:13:52;;;;;;;;;;;5.20;99.90;;;;;;5010845;28;19951;-72
2022/10/04 02:16:23;;;;;;;;;;;5.10;99.90;;;;;;5011837;28;20343;-71
2022/10/04 02:18:51;;;;;;;;;;;5.00;99.90;;;;;;4978221;28;19926;-72
2022/10/04 02:21:22;;;;;;;;;;;5.00;99.90;;;;;;5012114;28;19988;-71
2022/10/04 02:23:54;;;;;;;;;;;5.00;99.90;;;;;;5020139;28;20399;-72
2022/10/04 02:26:26;;;;;;;;;;;5.00;99.90;;;;;;5013866;28;19988;-71
2022/10/04 02:28:57;;;;;;;;;;;5.00;99.90;;;;;;5030923;28;19925;-71
2022/10/04 02:34:19;;;;;;;;;;;5.10;99.90;;;;;;5012813;28;19929;-71
2022/10/04 02:36:51;;;;;;;;;;;5.10;99.90;;;;;;5016432;28;19925;-70
2022/10/04 02:39:29;;;;;;;;;;;5.10;99.90;;;;;;5007041;28;19981;-71
2022/10/04 02:42:02;;;;;;;;;;;5.10;99.90;;;;;;5017478;28;19925;-71
2022/10/04 02:44:47;;;;;;;;;;;5.00;99.90;;;;;;5003130;28;19948;-72
2022/10/04 02:47:22;;;;;;;;;;;5.00;99.90;;;;;;4997091;28;19925;-71
2022/10/04 02:49:55;;;;;;;;;;;5.00;99.90;;;;;;4995080;28;19976;-71
2022/10/04 02:52:30;;;;;;;;;;;5.00;99.90;;;;;;5010492;28;19976;-72
2022/10/04 02:55:05;;;;;;;;;;;5.00;99.90;;;;;;5001966;28;19925;-71
2022/10/04 02:57:32;;;;;;;;;;;5.00;99.90;;;;;;5035051;28;19972;-71
2022/10/04 03:00:21;;;;;;;;;;;4.90;99.90;;;;;;5008528;28;19980;-71
2022/10/04 03:03:14;;;;;;;;;;;4.90;99.90;;;;;;5022894;28;20380;-72
2022/10/04 03:05:52;;;;;;;;;;;4.90;99.90;;;;;;5030085;28;19992;-70
2022/10/04 03:08:24;;;;;;;;;;;4.80;99.90;;;;;;5003969;28;19932;-71
2022/10/04 03:10:58;;;;;;;;;;;4.70;99.90;;;;;;5002559;28;20641;-71
2022/10/04 03:13:30;;;;;;;;;;;4.60;99.90;;;;;;5024582;28;19926;-72
2022/10/04 03:15:57;;;;;;;;;;;4.60;99.90;;;;;;5020984;28;19925;-72
2022/10/04 03:18:30;;;;;;;;;;;4.40;99.90;;;;;;4987892;28;19929;-72
2022/10/04 03:21:03;;;;;;;;;;;4.40;99.90;;;;;;5010673;28;19925;-71
2022/10/04 03:23:32;;;;;;;;;;;4.40;99.90;;;;;;5015513;28;19925;-71
2022/10/04 03:26:09;;;;;;;;;;;4.40;99.90;;;;;;5001640;28;19929;-71
2022/10/04 03:28:41;;;;;;;;;;;4.40;99.90;;;;;;4998544;28;19980;-72
2022/10/04 03:31:13;;;;;;;;;;;4.40;99.90;;;;;;4997994;28;20027;-71
2022/10/04 03:33:41;;;;;;;;;;;4.40;99.90;;;;;;5026340;28;19931;-71
2022/10/04 03:36:15;;;;;;;;;;;4.40;99.90;;;;;;5010153;28;19929;-71
2022/10/04 03:38:47;;;;;;;;;;;4.40;99.90;;;;;;5025706;28;20375;-71
2022/10/04 03:41:20;;;;;;;;;;;4.40;99.90;;;;;;5018225;28;19932;-71
2022/10/04 03:43:53;;;;;;;;;;;4.40;99.90;;;;;;5021149;28;19926;-72
2022/10/04 03:46:27;;;;;;;;;;;4.40;99.90;;;;;;5014981;28;19929;-71
2022/10/04 03:48:54;;;;;;;;;;;4.40;99.90;;;;;;4983601;28;19929;-71
2022/10/04 03:51:26;;;;;;;;;;;4.40;99.90;;;;;;5032861;28;19929;-70
2022/10/04 03:53:59;;;;;;;;;;;4.50;99.90;;;;;;5016866;28;19929;-71
2022/10/04 03:56:26;;;;;;;;;;;4.50;99.90;;;;;;5008363;28;19952;-71
2022/10/04 03:58:58;;;;;;;;;;;4.50;99.90;;;;;;4992758;28;19929;-70
2022/10/04 04:01:41;;;;;;;;;;;4.50;99.90;;;;;;5019968;28;19925;-71
2022/10/04 04:04:27;;;;;;;;;;;4.50;99.90;;;;;;5018183;28;19925;-71
2022/10/04 04:07:04;;;;;;;;;;;4.40;99.90;;;;;;5011586;28;19972;-70
2022/10/04 04:09:36;;;;;;;;;;;4.40;99.90;;;;;;5024794;28;19933;-74
2022/10/04 04:12:40;;;;;;;;;;;4.40;99.90;;;;;;4989723;28;19925;-70
2022/10/04 04:15:12;;;;;;;;;;;4.40;99.90;;;;;;5013262;28;19973;-71
2022/10/04 04:17:51;;;;;;;;;;;4.40;99.90;;;;;;5012693;28;19976;-71
2022/10/04 04:20:27;;;;;;;;;;;4.40;99.90;;;;;;5031152;28;19929;-71
2022/10/04 04:23:14;;;;;;;;;;;4.40;99.90;;;;;;4998614;28;19976;-71
2022/10/04 04:25:47;;;;;;;;;;;4.40;99.90;;;;;;5034601;28;19925;-71
2022/10/04 04:28:21;;;;;;;;;;;4.30;99.90;;;;;;5014053;28;19932;-70
2022/10/04 04:30:58;;;;;;;;;;;4.30;99.90;;;;;;5001036;28;20334;-72
2022/10/04 04:33:32;;;;;;;;;;;4.30;99.90;;;;;;5016453;28;19929;-71
2022/10/04 04:36:05;;;;;;;;;;;4.30;99.90;;;;;;5033892;28;19995;-73
2022/10/04 04:38:34;;;;;;;;;;;4.30;99.90;;;;;;4990106;28;19925;-73
2022/10/04 04:41:07;;;;;;;;;;;4.30;99.90;;;;;;5016310;28;19940;-73
2022/10/04 04:43:42;;;;;;;;;;;4.30;99.90;;;;;;5033881;28;19925;-71
2022/10/04 04:46:13;;;;;;;;;;;4.30;99.90;;;;;;5011905;28;20565;-71
2022/10/04 04:48:46;;;;;;;;;;;4.30;99.90;;;;;;5004913;28;19979;-72
2022/10/04 04:51:19;;;;;;;;;;;4.30;99.90;;;;;;5026051;28;19925;-71
2022/10/04 04:53:52;;;;;;;;;;;4.30;99.90;;;;;;5016968;28;20406;-71
2022/10/04 04:56:26;;;;;;;;;;;4.20;99.90;;;;;;5020976;28;19925;-71
2022/10/04 04:59:00;;;;;;;;;;;4.20;99.90;;;;;;4984092;28;19929;-71
2022/10/04 05:01:34;;;;;;;;;;;4.10;99.90;;;;;;4995507;28;20011;-70
2022/10/04 05:04:08;;;;;;;;;;;4.00;99.90;;;;;;5006859;28;19933;-71
2022/10/04 05:06:36;;;;;;;;;;;3.90;99.90;;;;;;5016635;28;19999;-72
2022/10/04 05:09:21;;;;;;;;;;;3.70;99.90;;;;;;5023337;28;20015;-71
2022/10/04 05:11:55;;;;;;;;;;;3.70;99.90;;;;;;5019649;28;19949;-71
2022/10/04 05:14:22;;;;;;;;;;;3.60;99.90;;;;;;5016061;28;21362;-71
2022/10/04 05:16:54;;;;;;;;;;;3.70;99.90;;;;;;5007483;28;20534;-71
2022/10/04 05:19:26;;;;;;;;;;;3.70;99.90;;;;;;5023759;28;19972;-71
2022/10/04 05:21:59;;;;;;;;;;;3.80;99.90;;;;;;5023879;28;19976;-71
2022/10/04 05:24:33;;;;;;;;;;;3.90;99.90;;;;;;5021372;28;19926;-71
2022/10/04 05:27:24;;;;;;;;;;;4.00;99.90;;;;;;4996049;28;19929;-71
2022/10/04 05:30:26;;;;;;;;;;;4.00;99.90;;;;;;5027582;28;19983;-71
2022/10/04 05:33:03;;;;;;;;;;;4.10;99.90;;;;;;5024132;28;19935;-71
2022/10/04 05:35:54;;;;;;;;;;;4.10;99.90;;;;;;4987377;28;19924;-73
2022/10/04 05:38:28;;;;;;;;;;;4.10;99.90;;;;;;4992954;28;19926;-72
2022/10/04 05:41:05;;;;;;;;;;;4.10;99.90;;;;;;4999700;28;20375;-71
2022/10/04 05:43:43;;;;;;;;;;;4.10;99.90;;;;;;5015063;28;20384;-71
2022/10/04 05:46:14;;;;;;;;;;;4.10;99.90;;;;;;5014655;28;19979;-71
2022/10/04 05:48:50;;;;;;;;;;;4.10;99.90;;;;;;5015754;28;19929;-71
2022/10/04 05:51:23;;;;;;;;;;;4.10;99.90;;;;;;5023105;28;19929;-71
2022/10/04 05:54:04;;;;;;;;;;;4.20;99.90;;;;;;5024652;28;19925;-71
2022/10/04 05:56:48;;;;;;;;;;;4.70;99.90;;;;;;5009077;28;19925;-71
2022/10/04 05:59:21;;;;;;;;;;;4.70;99.90;;;;;;5009042;28;19931;-72
2022/10/04 06:01:54;;;;;;;;;;;4.80;99.90;;;;;;5001633;28;19973;-71
2022/10/04 06:04:29;;;;;;;;;;;4.70;99.90;;;;;;5010829;28;19926;-71
2022/10/04 06:07:08;;;;;;;;;;;4.60;99.90;;;;;;5019182;28;19983;-70
2022/10/04 06:09:39;;;;;;;;;;;4.60;99.90;;;;;;5013401;28;19972;-72
2022/10/04 06:12:32;;;;;;;;;;;4.50;99.90;;;;;;5022200;28;19926;-72
2022/10/04 06:15:22;;;;;;;;;;;4.50;99.90;;;;;;5032353;28;19932;-71
2022/10/04 06:18:00;;;;;;;;;;;4.50;99.90;;;;;;4998275;28;20331;-70
2022/10/04 06:20:32;;;;;;;;;;;4.50;99.90;;;;;;5026869;28;19929;-71
2022/10/04 06:23:10;;;;;;;;;;;4.50;99.90;;;;;;5003059;28;19925;-71
2022/10/04 06:25:48;;;;;;;;;;;4.50;99.90;;;;;;5012548;28;19925;-71
2022/10/04 06:28:22;;;;;;;;;;;4.60;99.90;;;;;;5016512;28;20352;-71
2022/10/04 06:30:54;;;;;;;;;;;4.60;99.90;;;;;;5011105;28;19925;-70
2022/10/04 06:33:41;;;;;;;;;;;4.70;99.90;;;;;;5030279;28;19925;-71
2022/10/04 06:36:15;;;;;;;;;;;4.80;99.90;;;;;;5011553;28;20372;-71
2022/10/04 06:38:50;;;;;;;;;;;4.90;99.90;;;;;;5018242;28;19936;-71
2022/10/04 06:41:40;;;;;;;;;;;4.90;99.90;;;;;;5036347;28;19933;-71
2022/10/04 06:44:11;;;;;;;;;;;5.00;99.90;;;;;;5016665;28;19926;-70
2022/10/04 06:46:50;;;;;;;;;;;5.00;99.90;;;;;;4999467;28;20515;-71
2022/10/04 06:49:24;;;;;;;;;;;5.00;99.90;;;;;;5035712;28;19971;-71
2022/10/04 06:52:08;;;;;;;;;;;5.10;99.90;;;;;;5025817;28;19926;-72
2022/10/04 06:54:42;;;;;;;;;;;5.20;99.90;;;;;;5022810;28;19984;-72
2022/10/04 06:57:33;;;;;;;;;;;5.20;99.90;;;;;;5024961;28;19999;-71
2022/10/04 07:00:19;;;;;;;;;;;5.20;99.90;;;;;;4994033;28;20296;-73
2022/10/04 07:03:00;;;;;;;;;;;5.20;99.90;;;;;;4995528;28;20418;-72
2022/10/04 07:05:33;;;;;;;;;;;5.20;99.90;;;;;;5025146;28;19960;-72
2022/10/04 07:08:07;;;;;;;;;;;5.20;99.90;;;;;;5011420;28;19932;-73
2022/10/04 07:10:46;;;;;;;;;;;5.20;99.90;;;;;;4984040;28;20411;-71
2022/10/04 07:13:15;;;;;;;;;;;5.30;99.90;;;;;;5025494;28;20016;-73
2022/10/04 07:15:51;;;;;;;;;;;5.40;99.90;;;;;;5005722;28;19945;-71
2022/10/04 07:18:25;;;;;;;;;;;5.40;99.90;;;;;;5013470;28;19932;-73
2022/10/04 07:20:59;;;;;;;;;;;5.50;99.90;;;;;;5010011;28;19929;-73
2022/10/04 07:23:32;;;;;;;;;;;5.50;99.90;;;;;;5007267;28;20342;-72
2022/10/04 07:26:05;;;;;;;;;;;5.50;99.90;;;;;;5023412;28;19932;-73
2022/10/04 07:31:35;;;;;;;;;;;5.60;99.90;;;;;;5016255;28;19926;-72
2022/10/04 07:34:14;;;;;;;;;;;5.70;99.90;;;;;;5008440;28;19944;-72
2022/10/04 07:36:49;;;;;;;;;;;5.70;99.90;;;;;;5011917;28;19991;-73
2022/10/04 07:39:17;;;;;;;;;;;5.90;99.90;;;;;;5019234;28;19926;-73
2022/10/04 07:41:51;;;;;;;;;;;6.00;99.90;;;;;;5022737;28;19940;-72
2022/10/04 07:44:24;;;;;;;;;;;6.00;99.90;;;;;;5022767;28;20617;-72
2022/10/04 07:47:02;;;;;;;;;;;6.20;99.90;;;;;;4996765;28;19957;-72
2022/10/04 07:49:38;;;;;;;;;;;6.30;99.90;;;;;;5021133;28;19983;-72
2022/10/04 07:52:22;;;;;;;;;;;6.40;99.90;;;;;;5003575;28;20334;-72
2022/10/04 07:55:05;;;;;;;;;;;6.40;99.90;;;;;;4996464;28;19925;-73
2022/10/04 07:57:43;;;;;;;;;;;6.50;99.90;;;;;;5023188;28;19929;-73
2022/10/04 08:00:15;;;;;;;;;;;6.50;99.90;;;;;;5008315;28;19930;-73
2022/10/04 08:02:54;;;;;;;;;;;6.60;99.90;;;;;;5021557;28;19930;-72
2022/10/04 08:05:28;;;;;;;;;;;6.70;99.90;;;;;;5008982;28;19983;-72
2022/10/04 08:07:55;;;;;;;;;;;6.80;99.90;;;;;;5024396;28;20344;-72
2022/10/04 08:10:41;;;;;;;;;;;6.80;99.90;;;;;;4993798;28;19957;-72
2022/10/04 08:13:13;;;;;;;;;;;6.70;99.90;;;;;;5022187;28;19937;-73
2022/10/04 08:15:45;;;;;;;;;;;6.80;99.90;;;;;;5028554;28;19913;-72
2022/10/04 08:18:27;;;;;;;;;;;6.80;99.90;;;;;;5024805;28;19914;-71
2022/10/04 08:21:00;;;;;;;;;;;6.80;99.90;;;;;;5002079;28;19972;-72
2022/10/04 08:23:40;;;;;;;;;;;6.90;99.90;;;;;;5023046;28;19929;-73
2022/10/04 08:26:25;;;;;;;;;;;7.00;99.90;;;;;;5019731;28;19929;-73
2022/10/04 08:32:22;;;;;;;;;;;7.20;99.90;;;;;;5006953;28;19930;-72
2022/10/04 08:35:08;;;;;;;;;;;7.30;99.90;;;;;;5005064;28;21280;-72
2022/10/04 08:37:47;;;;;;;;;;;7.30;99.90;;;;;;5004185;28;20399;-72
2022/10/04 08:40:32;;;;;;;;;;;7.50;99.90;;;;;;5001097;28;19933;-72
2022/10/04 08:43:18;;;;;;;;;;;7.60;99.90;;;;;;4998054;28;20411;-72
2022/10/04 08:45:48;;;;;;;;;;;7.80;99.90;;;;;;5019825;28;19979;-72
2022/10/04 08:48:29;;;;;;;;;;;8.00;99.90;;;;;;5005776;28;19969;-73
2022/10/04 08:50:59;;;;;;;;;;;8.10;99.90;;;;;;4990598;28;19926;-73
2022/10/04 08:53:58;;;;;;;;;;;8.20;99.90;;;;;;4989989;28;19929;-72
2022/10/04 08:56:49;;;;;;;;;;;8.30;99.90;;;;;;5002180;28;20387;-72
2022/10/04 08:59:39;;;;;;;;;;;8.50;99.90;;;;;;4998491;28;19933;-73
2022/10/04 09:02:16;;;;;;;;;;;8.60;99.90;;;;;;5004946;28;19933;-70
2022/10/04 09:04:55;;;;;;;;;;;8.70;99.90;;;;;;4956104;28;19933;-71
2022/10/04 09:07:32;;;;;;;;;;;8.80;99.90;;;;;;5013512;28;19933;-70
2022/10/04 09:09:59;;;;;;;;;;;8.80;99.90;;;;;;5014833;28;20364;-72
2022/10/04 09:12:25;;;;;;;;;;;8.90;99.90;;;;;;5014143;28;19984;-72
2022/10/04 09:15:09;;;;;;;;;;;8.90;99.90;;;;;;5018880;28;20399;-73
2022/10/04 09:18:04;;;;;;;;;;;9.10;99.90;;;;;;5018238;28;19925;-72
2022/10/04 09:20:48;;;;;;;;;;;9.20;99.90;;;;;;4970322;28;20367;-72
2022/10/04 09:23:23;;;;;;;;;;;9.30;99.90;;;;;;4998494;28;19930;-72
2022/10/04 09:26:07;;;;;;;;;;;9.30;99.90;;;;;;4994645;28;19925;-73
2022/10/04 09:28:52;;;;;;;;;;;9.40;99.90;;;;;;4972687;28;19929;-71
2022/10/04 09:31:33;;;;;;;;;;;9.40;99.90;;;;;;4996327;28;20354;-71
2022/10/04 09:34:26;;;;;;;;;;;9.50;99.90;;;;;;5008138;28;19925;-71
2022/10/04 09:37:10;;;;;;;;;;;9.60;99.90;;;;;;5016586;28;19980;-73
2022/10/04 09:39:58;;;;;;;;;;;9.70;99.90;;;;;;5021984;28;20314;-72
2022/10/04 09:42:43;;;;;;;;;;;9.90;99.90;;;;;;5016802;28;19988;-71
2022/10/04 09:45:13;;;;;;;;;;;9.90;99.90;;;;;;5010783;28;19925;-71
2022/10/04 09:47:55;;;;;;;;;;;10.10;99.90;;;;;;5018953;28;19930;-72
2022/10/04 09:50:41;;;;;;;;;;;10.20;99.90;;;;;;5022492;28;19925;-71
2022/10/04 09:53:27;;;;;;;;;;;10.30;99.90;;;;;;5021177;28;20007;-71
2022/10/04 09:56:25;;;;;;;;;;;10.40;99.90;;;;;;5021042;28;19925;-71
2022/10/04 09:59:17;;;;;;;;;;;10.50;99.90;;;;;;5008890;28;19925;-71
2022/10/04 10:01:52;;;;;;;;;;;10.60;99.90;;;;;;5008100;28;19957;-71
2022/10/04 10:04:24;;;;;;;;;;;10.60;99.90;;;;;;5025134;28;20451;-72
2022/10/04 10:07:14;;;;;;;;;;;10.70;99.90;;;;;;4985476;28;19925;-71
2022/10/04 10:16:00;;;;;;;;;;;10.90;99.90;;;;;;5016432;28;19926;-71
2022/10/04 10:18:32;;;;;;;;;;;11.00;99.90;;;;;;5009954;28;19925;-71
2022/10/04 10:21:10;;;;;;;;;;;11.10;99.90;;;;;;4994524;28;19925;-72
2022/10/04 10:23:45;;;;;;;;;;;11.20;99.90;;;;;;5011093;28;19932;-72
2022/10/04 10:26:27;;;;;;;;;;;11.40;99.90;;;;;;4996106;28;19929;-71
2022/10/04 10:29:20;;;;;;;;;;;11.60;99.90;;;;;;4997889;28;19933;-71
2022/10/04 10:31:58;;;;;;;;;;;11.70;99.90;;;;;;5007710;28;19925;-71
2022/10/04 10:34:51;;;;;;;;;;;11.80;99.90;;;;;;5000417;28;19929;-73
2022/10/04 10:37:44;;;;;;;;;;;12.00;99.90;;;;;;5017037;28;19925;-74
2022/10/04 10:40:19;;;;;;;;;;;12.20;99.90;;;;;;5003846;28;19925;-71
2022/10/04 10:43:00;;;;;;;;;;;12.40;99.90;;;;;;5017354;28;19992;-72
2022/10/04 10:45:42;;;;;;;;;;;12.50;99.90;;;;;;5005215;28;20344;-72
2022/10/04 10:48:20;;;;;;;;;;;12.70;99.90;;;;;;5020956;28;19979;-71
2022/10/04 10:50:57;;;;;;;;;;;12.90;99.90;;;;;;5020281;28;19932;-75
2022/10/04 10:53:46;;;;;;;;;;;13.10;99.90;;;;;;5021554;28;19933;-73
2022/10/04 10:56:28;;;;;;;;;;;13.20;99.90;;;;;;5017629;28;19932;-70
2022/10/04 10:59:04;;;;;;;;;;;13.20;99.90;;;;;;5007348;28;19925;-71
2022/10/04 11:01:54;;;;;;;;;;;13.30;99.90;;;;;;5018060;28;20314;-71
2022/10/04 11:04:35;;;;;;;;;;;13.30;99.90;;;;;;5013796;28;19961;-71
2022/10/04 11:07:17;;;;;;;;;;;13.40;99.90;;;;;;5019251;28;19925;-71
2022/10/04 11:10:07;;;;;;;;;;;13.50;99.90;;;;;;5020476;28;19979;-71
2022/10/04 11:12:40;;;;;;;;;;;13.60;99.90;;;;;;5022024;28;20388;-72
2022/10/04 11:15:31;;;;;;;;;;;13.70;99.90;;;;;;5023370;28;19925;-71
2022/10/04 11:18:21;;;;;;;;;;;13.80;99.90;;;;;;5023776;28;19929;-71
2022/10/04 11:21:11;;;;;;;;;;;13.90;99.90;;;;;;5029555;28;20376;-72
2022/10/04 11:24:02;;;;;;;;;;;14.10;99.90;;;;;;5034049;28;19925;-72
2022/10/04 11:26:53;;;;;;;;;;;14.30;99.90;;;;;;5030327;28;19979;-71
2022/10/04 11:29:30;;;;;;;;;;;14.50;99.90;;;;;;5017619;28;20387;-71
2022/10/04 11:32:22;;;;;;;;;;;14.60;99.90;;;;;;5034750;28;19980;-72
2022/10/04 11:35:26;;;;;;;;;;;14.70;99.90;;;;;;5012932;28;19984;-72
2022/10/04 11:37:58;;;;;;;;;;;14.80;99.90;;;;;;4992778;28;19966;-72
2022/10/04 11:40:48;;;;;;;;;;;14.90;99.90;;;;;;5031856;28;19932;-72
2022/10/04 11:43:20;;;;;;;;;;;15.00;99.90;;;;;;5018073;28;19925;-73
2022/10/04 11:46:15;;;;;;;;;;;15.00;99.90;;;;;;5034761;28;19929;-72
2022/10/04 11:48:52;;;;;;;;;;;15.10;99.90;;;;;;4977880;28;19926;-72
2022/10/04 11:51:27;;;;;;;;;;;15.20;99.90;;;;;;5011038;28;20403;-71
2022/10/04 11:54:14;;;;;;;;;;;15.30;99.90;;;;;;4981371;28;19979;-72
2022/10/04 11:56:55;;;;;;;;;;;15.30;99.90;;;;;;5007819;28;19925;-72
2022/10/04 11:59:46;;;;;;;;;;;15.40;99.90;;;;;;5007823;28;19980;-72
2022/10/04 12:02:25;;;;;;;;;;;15.40;99.90;;;;;;4994628;28;20407;-72
2022/10/04 12:05:06;;;;;;;;;;;15.50;99.90;;;;;;5011019;28;19929;-72
2022/10/04 12:07:49;;;;;;;;;;;15.60;99.90;;;;;;5026579;28;19933;-73
2022/10/04 12:10:22;;;;;;;;;;;15.70;99.90;;;;;;5016476;28;20412;-72
2022/10/04 12:13:03;;;;;;;;;;;15.80;99.90;;;;;;5011585;28;19926;-72
2022/10/04 12:15:48;;;;;;;;;;;15.90;99.90;;;;;;5021424;28;19925;-72
2022/10/04 12:18:31;;;;;;;;;;;16.00;99.90;;;;;;4997941;28;19977;-72
2022/10/04 12:21:18;;;;;;;;;;;16.00;99.90;;;;;;5030166;28;20292;-72
2022/10/04 12:23:59;;;;;;;;;;;16.10;99.90;;;;;;4999147;28;19956;-72
2022/10/04 12:26:44;;;;;;;;;;;16.20;99.90;;;;;;5032140;28;20347;-72
2022/10/04 12:29:29;;;;;;;;;;;16.20;99.90;;;;;;4996938;28;20299;-72
2022/10/04 12:32:07;;;;;;;;;;;16.30;99.90;;;;;;4993485;28;19991;-72
2022/10/04 12:35:04;;;;;;;;;;;16.30;99.90;;;;;;4995879;28;19969;-72
2022/10/04 12:37:42;;;;;;;;;;;16.40;99.90;;;;;;5025527;28;19979;-72
2022/10/04 12:40:23;;;;;;;;;;;16.50;99.90;;;;;;5025213;28;19991;-72
2022/10/04 12:43:13;;;;;;;;;;;16.60;99.90;;;;;;5006649;28;20340;-72
2022/10/04 12:46:03;;;;;;;;;;;16.60;99.90;;;;;;5025378;28;20469;-72
2022/10/04 12:48:54;;;;;;;;;;;16.60;99.90;;;;;;4996261;28;19925;-72
2022/10/04 12:51:35;;;;;;;;;;;16.70;99.90;;;;;;5008265;28;19984;-72
2022/10/04 12:54:13;;;;;;;;;;;16.80;99.90;;;;;;5006879;28;19930;-72
2022/10/04 12:56:45;;;;;;;;;;;16.80;99.90;;;;;;5000986;28;19989;-73
2022/10/04 12:59:16;;;;;;;;;;;16.80;99.90;;;;;;5002370;28;19980;-72
2022/10/04 13:01:56;;;;;;;;;;;16.80;99.90;;;;;;5026554;28;19929;-73
2022/10/04 13:04:35;;;;;;;;;;;16.80;99.90;;;;;;4992049;28;19933;-72
2022/10/04 13:07:17;;;;;;;;;;;16.80;99.90;;;;;;5030725;28;19925;-71
2022/10/04 13:09:58;;;;;;;;;;;16.90;99.90;;;;;;5016105;28;19925;-71
2022/10/04 13:12:33;;;;;;;;;;;16.90;99.90;;;;;;5033306;28;19925;-71
2022/10/04 13:15:13;;;;;;;;;;;17.00;99.90;;;;;;5033308;28;19925;-71
2022/10/04 13:17:49;;;;;;;;;;;17.00;99.90;;;;;;5010116;28;19934;-71
2022/10/04 13:20:30;;;;;;;;;;;17.10;99.90;;;;;;5026734;28;19925;-71
2022/10/04 13:23:02;;;;;;;;;;;17.10;99.90;;;;;;5032819;28;19925;-72
2022/10/04 13:25:31;;;;;;;;;;;17.20;99.90;;;;;;5026857;28;19949;-73
2022/10/04 13:28:22;;;;;;;;;;;17.20;99.90;;;;;;5006975;28;19976;-72
2022/10/04 13:31:00;;;;;;;;;;;17.20;99.90;;;;;;5027759;28;19929;-71
2022/10/04 13:33:27;;;;;;;;;;;17.20;99.90;;;;;;5031036;28;19980;-71
2022/10/04 13:36:04;;;;;;;;;;;17.20;99.90;;;;;;5025024;28;19976;-71
2022/10/04 13:38:48;;;;;;;;;;;17.20;99.90;;;;;;5032920;28;19972;-72
2022/10/04 13:41:31;;;;;;;;;;;17.30;99.90;;;;;;5032861;28;19932;-72
2022/10/04 13:44:16;;;;;;;;;;;17.40;99.90;;;;;;5015995;28;19983;-71
2022/10/04 13:46:54;;;;;;;;;;;17.40;99.90;;;;;;5032323;28;19929;-72
2022/10/04 13:49:26;;;;;;;;;;;17.30;99.90;;;;;;5013822;28;20384;-71
2022/10/04 13:57:54;;;;;;;;;;;17.40;99.90;;;;;;5020862;28;19925;-70
2022/10/04 14:00:44;;;;;;;;;;;17.50;99.90;;;;;;5014309;28;19932;-70
2022/10/04 14:03:28;;;;;;;;;;;17.50;99.90;;;;;;5013637;28;19952;-70
2022/10/04 14:06:18;;;;;;;;;;;17.60;99.90;;;;;;5029519;28;20392;-71
2022/10/04 14:08:50;;;;;;;;;;;17.70;99.90;;;;;;4994071;28;19926;-71
2022/10/04 14:11:40;;;;;;;;;;;17.80;99.90;;;;;;5032211;28;19925;-70
2022/10/04 14:14:27;;;;;;;;;;;17.80;99.90;;;;;;5023890;28;19937;-70
2022/10/04 14:17:21;;;;;;;;;;;17.80;99.90;;;;;;5012686;28;20304;-70
2022/10/04 14:20:02;;;;;;;;;;;17.90;99.90;;;;;;4996150;28;19925;-70
2022/10/04 14:22:34;;;;;;;;;;;17.90;99.90;;;;;;5012477;28;19925;-70
2022/10/04 14:25:09;;;;;;;;;;;17.90;99.90;;;;;;4995245;28;19926;-71
2022/10/04 14:27:42;;;;;;;;;;;17.90;99.90;;;;;;5012332;28;19933;-72
2022/10/04 14:30:32;;;;;;;;;;;17.90;99.90;;;;;;5019170;28;19947;-70
2022/10/04 14:33:24;;;;;;;;;;;17.90;99.90;;;;;;5006296;28;19925;-70
2022/10/04 14:36:07;;;;;;;;;;;17.90;99.90;;;;;;5032462;28;19936;-75
2022/10/04 14:38:41;;;;;;;;;;;18.00;99.90;;;;;;5035219;28;20403;-70
2022/10/04 14:41:22;;;;;;;;;;;18.00;99.90;;;;;;5032480;28;19925;-70
2022/10/04 14:43:53;;;;;;;;;;;18.00;99.90;;;;;;5015315;28;20450;-70
2022/10/04 14:46:25;;;;;;;;;;;18.10;99.90;;;;;;5007640;28;19925;-71
2022/10/04 14:49:11;;;;;;;;;;;18.20;99.90;;;;;;5022961;28;19926;-70
2022/10/04 14:51:50;;;;;;;;;;;18.40;99.90;;;;;;5035423;28;20351;-70
2022/10/04 14:54:21;;;;;;;;;;;18.70;99.90;;;;;;5017846;28;19925;-70
2022/10/04 14:57:11;;;;;;;;;;;18.90;99.90;;;;;;5016466;28;19926;-71
2022/10/04 14:59:49;;;;;;;;;;;19.00;99.90;;;;;;5014541;28;19925;-71
2022/10/04 15:02:30;;;;;;;;;;;19.30;99.90;;;;;;5019441;28;19932;-70
2022/10/04 15:05:28;;;;;;;;;;;19.50;99.90;;;;;;5028660;28;20048;-70
2022/10/04 15:08:18;;;;;;;;;;;19.90;99.90;;;;;;5018806;28;19925;-70
2022/10/04 15:10:57;;;;;;;;;;;20.30;99.90;;;;;;5018481;28;19925;-70
2022/10/04 15:13:55;;;;;;;;;;;20.70;99.90;;;;;;5036132;28;19952;-70
2022/10/04 15:16:36;;;;;;;;;;;20.90;99.90;;;;;;5012808;28;19925;-70
2022/10/04 15:19:10;;;;;;;;;;;21.20;99.90;;;;;;5017987;28;19925;-70
2022/10/04 15:21:54;;;;;;;;;;;21.50;99.90;;;;;;5014607;28;19932;-70
2022/10/04 15:24:27;;;;;;;;;;;21.80;99.90;;;;;;5015937;28;19929;-70
2022/10/04 15:27:02;;;;;;;;;;;22.10;99.90;;;;;;5023307;28;19976;-70
2022/10/04 15:29:43;;;;;;;;;;;22.40;99.90;;;;;;5035504;28;19956;-70
2022/10/04 15:32:31;;;;;;;;;;;22.70;99.90;;;;;;5028759;28;19996;-70
2022/10/04 15:35:19;;;;;;;;;;;22.80;99.90;;;;;;5015701;28;19929;-71
2022/10/04 15:38:00;;;;;;;;;;;22.60;99.90;;;;;;5000577;28;20407;-70
2022/10/04 15:40:36;;;;;;;;;;;22.20;99.90;;;;;;5018378;28;19925;-71
2022/10/04 15:43:27;;;;;;;;;;;21.90;99.90;;;;;;5034171;28;19976;-72
2022/10/04 15:46:04;;;;;;;;;;;21.80;99.90;;;;;;5018216;28;19929;-71
2022/10/04 15:48:54;;;;;;;;;;;21.60;99.90;;;;;;5012317;28;19980;-69
2022/10/04 15:51:45;;;;;;;;;;;21.50;99.90;;;;;;5022156;28;19979;-71
2022/10/04 15:54:35;;;;;;;;;;;21.20;99.90;;;;;;5012688;28;19926;-70